Time,TemperatureF,DewpointF,PressureIn,WindDirection,WindDirectionDegrees,WindSpeedMPH,WindSpeedGustMPH,Humidity,HourlyPrecipIn,Conditions,Clouds,dailyrainin,SoftwareType,DateUTC
2014-10-20 00:02:00,58.6,43.5,30.24,East,91,0.0,0.0,57,0.00,,---,0.00,VWS V14.01,2014-10-19 21:02:00,
2014-10-20 00:07:00,58.6,43.5,30.24,East,87,3.6,3.6,57,0.00,,---,0.00,VWS V14.01,2014-10-19 21:07:00,
2014-10-20 00:12:00,58.5,43.8,30.24,East,97,0.0,2.7,58,0.00,,---,0.00,VWS V14.01,2014-10-19 21:12:00,
2014-10-20 00:18:00,58.5,43.8,30.24,ESE,115,3.1,3.1,58,0.00,,---,0.00,VWS V14.01,2014-10-19 21:18:00,
2014-10-20 00:23:00,58.5,43.8,30.24,ESE,114,3.6,8.1,58,0.00,,---,0.00,VWS V14.01,2014-10-19 21:23:00,
2014-10-20 00:30:00,58.5,43.8,30.24,ESE,106,3.1,5.8,58,0.00,,---,0.00,VWS V14.01,2014-10-19 21:30:00,
2014-10-20 00:36:00,58.5,43.8,30.24,ESE,112,4.0,4.0,58,0.00,,---,0.00,VWS V14.01,2014-10-19 21:36:00,
2014-10-20 00:41:00,58.5,43.8,30.24,East,92,0.0,0.0,58,0.00,,---,0.00,VWS V14.01,2014-10-19 21:41:00,
2014-10-20 00:47:00,58.5,43.8,30.24,ESE,109,3.6,3.6,58,0.00,,---,0.00,VWS V14.01,2014-10-19 21:47:00,
2014-10-20 00:52:00,58.5,43.3,30.24,ESE,106,3.1,4.0,57,0.00,,---,0.00,VWS V14.01,2014-10-19 21:52:00,
2014-10-20 00:58:00,58.5,43.3,30.24,East,85,4.9,4.9,57,0.00,,---,0.00,VWS V14.01,2014-10-19 21:58:00,
2014-10-20 01:04:00,58.5,43.3,30.24,ESE,108,3.6,3.6,57,0.00,,---,0.00,VWS V14.01,2014-10-19 22:04:00,
2014-10-20 01:09:00,58.5,43.3,30.21,East,92,3.6,5.4,57,0.00,,---,0.00,VWS V14.01,2014-10-19 22:09:00,
2014-10-20 01:15:00,58.5,43.3,30.21,NE,56,3.1,5.4,57,0.00,,---,0.00,VWS V14.01,2014-10-19 22:15:00,
2014-10-20 01:20:00,58.6,43.5,30.21,NE,50,3.1,5.4,57,0.00,,---,0.00,VWS V14.01,2014-10-19 22:20:00,
2014-10-20 01:26:00,58.6,43.5,30.21,NNE,20,6.7,6.7,57,0.00,,---,0.00,VWS V14.01,2014-10-19 22:26:00,
2014-10-20 01:31:00,58.6,43.5,30.21,ESE,111,3.1,3.1,57,0.00,,---,0.00,VWS V14.01,2014-10-19 22:31:00,
2014-10-20 01:36:00,58.6,43.5,30.21,NE,54,5.8,9.6,57,0.00,,---,0.00,VWS V14.01,2014-10-19 22:36:00,
2014-10-20 01:42:00,58.6,43.5,30.21,East,88,8.3,8.3,57,0.00,,---,0.00,VWS V14.01,2014-10-19 22:42:00,
2014-10-20 01:47:00,58.6,43.5,30.21,NNE,14,6.3,8.7,57,0.00,,---,0.00,VWS V14.01,2014-10-19 22:47:00,
2014-10-20 01:53:00,58.6,43.5,30.21,NE,34,8.7,10.5,57,0.00,,---,0.00,VWS V14.01,2014-10-19 22:53:00,
2014-10-20 01:58:00,58.6,43.9,30.21,NNE,23,5.8,6.3,58,0.00,,---,0.00,VWS V14.01,2014-10-19 22:58:00,
2014-10-20 02:04:00,58.5,43.8,30.21,NE,34,6.3,8.7,58,0.00,,---,0.00,VWS V14.01,2014-10-19 23:04:00,
2014-10-20 02:10:00,58.5,43.8,30.21,NNW,333,4.9,4.9,58,0.00,,---,0.00,VWS V14.01,2014-10-19 23:10:00,
2014-10-20 02:15:00,58.5,43.8,30.21,ENE,71,0.0,5.4,58,0.00,,---,0.00,VWS V14.01,2014-10-19 23:15:00,
2014-10-20 02:20:00,58.3,43.6,30.21,ENE,72,0.0,0.0,58,0.00,,---,0.00,VWS V14.01,2014-10-19 23:20:00,
2014-10-20 02:25:00,58.1,43.4,30.21,North,357,0.0,0.0,58,0.00,,---,0.00,VWS V14.01,2014-10-19 23:25:00,
2014-10-20 02:32:00,58.1,43.9,30.21,North,9,5.4,5.4,59,0.00,,---,0.00,VWS V14.01,2014-10-19 23:32:00,
2014-10-20 02:37:00,58.3,44.0,30.21,NE,56,5.4,6.3,59,0.00,,---,0.00,VWS V14.01,2014-10-19 23:37:00,
2014-10-20 02:43:00,58.5,44.2,30.21,NE,52,8.1,8.1,59,0.00,,---,0.00,VWS V14.01,2014-10-19 23:43:00,
2014-10-20 02:48:00,58.5,43.8,30.21,NNE,26,6.3,8.1,58,0.00,,---,0.00,VWS V14.01,2014-10-19 23:48:00,
2014-10-20 02:53:00,58.5,43.8,30.18,NE,46,4.0,8.1,58,0.00,,---,0.00,VWS V14.01,2014-10-19 23:53:00,
2014-10-20 02:58:00,58.5,43.8,30.18,NW,310,3.6,3.6,58,0.00,,---,0.00,VWS V14.01,2014-10-19 23:58:00,
2014-10-20 03:04:00,58.5,43.8,30.18,WNW,299,0.0,4.0,58,0.00,,---,0.00,VWS V14.01,2014-10-20 00:04:00,
2014-10-20 03:10:00,58.5,43.8,30.18,West,280,0.0,4.5,58,0.00,,---,0.00,VWS V14.01,2014-10-20 00:10:00,
2014-10-20 03:15:00,58.5,43.8,30.18,NE,38,0.0,2.7,58,0.00,,---,0.00,VWS V14.01,2014-10-20 00:15:00,
2014-10-20 03:20:00,58.3,43.6,30.18,NW,322,0.0,2.7,58,0.00,,---,0.00,VWS V14.01,2014-10-20 00:20:00,
2014-10-20 03:26:00,57.9,43.2,30.18,SSW,205,0.0,0.0,58,0.00,,---,0.00,VWS V14.01,2014-10-20 00:26:00,
2014-10-20 03:31:00,57.6,42.9,30.18,NW,326,6.3,6.3,58,0.00,,---,0.00,VWS V14.01,2014-10-20 00:31:00,
2014-10-20 03:36:00,57.7,43.5,30.18,West,278,4.0,4.0,59,0.00,,---,0.00,VWS V14.01,2014-10-20 00:36:00,
2014-10-20 03:41:00,57.9,43.7,30.18,North,350,0.0,0.0,59,0.00,,---,0.00,VWS V14.01,2014-10-20 00:41:00,
2014-10-20 03:46:00,58.1,43.9,30.18,NE,48,0.0,0.0,59,0.00,,---,0.00,VWS V14.01,2014-10-20 00:46:00,
2014-10-20 03:52:00,58.1,43.9,30.18,ENE,64,0.0,3.1,59,0.00,,---,0.00,VWS V14.01,2014-10-20 00:52:00,
2014-10-20 03:57:00,58.1,43.9,30.18,North,0,2.7,5.8,59,0.00,,---,0.00,VWS V14.01,2014-10-20 00:57:00,
2014-10-20 04:02:00,58.3,44.0,30.18,ESE,119,5.8,5.8,59,0.00,,---,0.00,VWS V14.01,2014-10-20 01:02:00,
2014-10-20 04:07:00,58.3,44.5,30.18,NE,45,5.8,5.8,60,0.00,,---,0.00,VWS V14.01,2014-10-20 01:07:00,
2014-10-20 04:13:00,58.3,44.5,30.18,NE,49,3.1,4.9,60,0.00,,---,0.00,VWS V14.01,2014-10-20 01:13:00,
2014-10-20 04:18:00,58.5,44.2,30.18,North,4,5.8,8.7,59,0.00,,---,0.00,VWS V14.01,2014-10-20 01:18:00,
2014-10-20 04:24:00,58.5,44.2,30.18,NE,53,5.4,8.3,59,0.00,,---,0.00,VWS V14.01,2014-10-20 01:24:00,
2014-10-20 04:29:00,58.5,44.2,30.18,North,0,2.7,5.8,59,0.00,,---,0.00,VWS V14.01,2014-10-20 01:29:00,
2014-10-20 04:34:00,58.5,44.2,30.18,NNW,343,8.1,8.1,59,0.00,,---,0.00,VWS V14.01,2014-10-20 01:34:00,
2014-10-20 04:40:00,58.5,44.2,30.18,North,353,2.7,8.1,59,0.00,,---,0.00,VWS V14.01,2014-10-20 01:40:00,
2014-10-20 04:46:00,58.5,44.2,30.18,North,2,6.3,6.3,59,0.00,,---,0.00,VWS V14.01,2014-10-20 01:46:00,
2014-10-20 04:52:00,58.5,44.2,30.18,NE,39,4.0,5.4,59,0.00,,---,0.00,VWS V14.01,2014-10-20 01:52:00,
2014-10-20 04:57:00,58.6,44.4,30.18,NNE,28,2.7,2.7,59,0.00,,---,0.00,VWS V14.01,2014-10-20 01:57:00,
2014-10-20 05:03:00,58.6,44.4,30.18,ENE,69,5.4,8.3,59,0.00,,---,0.00,VWS V14.01,2014-10-20 02:03:00,
2014-10-20 05:08:00,58.6,44.4,30.15,NNE,13,4.0,10.1,59,0.00,,---,0.00,VWS V14.01,2014-10-20 02:08:00,
2014-10-20 05:13:00,58.8,44.5,30.15,ENE,67,3.1,4.9,59,0.00,,---,0.00,VWS V14.01,2014-10-20 02:13:00,
2014-10-20 05:18:00,58.8,44.5,30.15,NNE,20,3.6,6.3,59,0.00,,---,0.00,VWS V14.01,2014-10-20 02:18:00,
2014-10-20 05:24:00,58.6,44.4,30.15,NE,52,6.3,6.3,59,0.00,,---,0.00,VWS V14.01,2014-10-20 02:24:00,
2014-10-20 05:30:00,58.6,44.4,30.15,NE,34,0.0,3.6,59,0.00,,---,0.00,VWS V14.01,2014-10-20 02:30:00,
2014-10-20 05:35:00,58.5,44.2,30.15,NE,41,7.6,7.6,59,0.00,,---,0.00,VWS V14.01,2014-10-20 02:35:00,
2014-10-20 05:40:00,58.5,44.2,30.15,East,98,2.7,6.3,59,0.00,,---,0.00,VWS V14.01,2014-10-20 02:40:00,
2014-10-20 05:46:00,58.5,44.2,30.15,ENE,58,5.8,5.8,59,0.00,,---,0.00,VWS V14.01,2014-10-20 02:46:00,
2014-10-20 05:51:00,58.5,44.2,30.15,NNE,20,3.6,4.9,59,0.00,,---,0.00,VWS V14.01,2014-10-20 02:51:00,
2014-10-20 05:56:00,58.3,44.5,30.15,NE,46,3.1,4.0,60,0.00,,---,0.00,VWS V14.01,2014-10-20 02:56:00,
2014-10-20 06:02:00,58.3,44.5,30.15,North,10,7.6,7.6,60,0.00,,---,0.00,VWS V14.01,2014-10-20 03:02:00,
2014-10-20 06:09:00,58.3,44.5,30.15,East,83,3.1,4.0,60,0.00,,---,0.00,VWS V14.01,2014-10-20 03:09:00,
2014-10-20 06:14:00,58.3,44.5,30.15,NNE,19,3.1,10.1,60,0.00,,---,0.00,VWS V14.01,2014-10-20 03:14:00,
2014-10-20 06:20:00,58.3,44.5,30.15,NE,50,2.7,6.3,60,0.00,,---,0.00,VWS V14.01,2014-10-20 03:20:00,
2014-10-20 06:25:00,58.1,44.7,30.15,ENE,57,0.0,0.0,61,0.00,,---,0.00,VWS V14.01,2014-10-20 03:25:00,
2014-10-20 06:31:00,58.1,44.7,30.15,East,92,4.9,4.9,61,0.00,,---,0.00,VWS V14.01,2014-10-20 03:31:00,
2014-10-20 06:37:00,57.9,44.6,30.15,ENE,61,5.4,5.4,61,0.00,,---,0.00,VWS V14.01,2014-10-20 03:37:00,
2014-10-20 06:42:00,57.9,45.0,30.15,ENE,63,2.7,5.8,62,0.00,,---,0.00,VWS V14.01,2014-10-20 03:42:00,
2014-10-20 06:48:00,57.9,45.0,30.15,ENE,62,3.6,5.8,62,0.00,,---,0.00,VWS V14.01,2014-10-20 03:48:00,
2014-10-20 06:53:00,57.9,45.0,30.15,NE,43,3.1,5.4,62,0.00,,---,0.00,VWS V14.01,2014-10-20 03:53:00,
2014-10-20 06:59:00,57.9,45.0,30.15,NE,54,4.0,4.0,62,0.00,,---,0.00,VWS V14.01,2014-10-20 03:59:00,
2014-10-20 07:05:00,57.7,44.8,30.15,NNE,25,2.7,3.6,62,0.00,,---,0.00,VWS V14.01,2014-10-20 04:05:00,
2014-10-20 07:10:00,57.7,44.8,30.15,East,84,2.2,5.4,62,0.00,,---,0.00,VWS V14.01,2014-10-20 04:10:00,
2014-10-20 07:15:00,57.7,44.8,30.15,East,86,0.0,0.0,62,0.00,,---,0.00,VWS V14.01,2014-10-20 04:15:00,
2014-10-20 07:20:00,57.7,45.2,30.15,NE,49,0.0,3.6,63,0.00,,---,0.00,VWS V14.01,2014-10-20 04:20:00,
2014-10-20 07:25:00,57.7,45.2,30.15,NE,49,0.0,3.1,63,0.00,,---,0.00,VWS V14.01,2014-10-20 04:25:00,
2014-10-20 07:31:00,57.7,45.2,30.15,NNE,27,2.2,3.6,63,0.00,,---,0.00,VWS V14.01,2014-10-20 04:31:00,
2014-10-20 07:36:00,57.7,45.2,30.15,NE,40,0.0,0.0,63,0.00,,---,0.00,VWS V14.01,2014-10-20 04:36:00,
2014-10-20 07:41:00,57.6,45.5,30.15,SE,144,3.1,3.1,64,0.00,,---,0.00,VWS V14.01,2014-10-20 04:41:00,
2014-10-20 07:47:00,57.6,45.5,30.15,East,85,0.0,0.0,64,0.00,,---,0.00,VWS V14.01,2014-10-20 04:47:00,
2014-10-20 07:52:00,57.6,45.9,30.15,NE,42,2.7,4.5,65,0.00,,---,0.00,VWS V14.01,2014-10-20 04:52:00,
2014-10-20 07:57:00,57.6,46.3,30.15,NE,50,2.2,4.0,66,0.00,,---,0.00,VWS V14.01,2014-10-20 04:57:00,
2014-10-20 08:02:00,57.7,46.9,30.15,NE,45,4.0,6.3,67,0.00,,---,0.00,VWS V14.01,2014-10-20 05:02:00,
2014-10-20 08:08:00,57.7,46.9,30.15,NE,46,4.0,4.0,67,0.00,,---,0.00,VWS V14.01,2014-10-20 05:08:00,
2014-10-20 08:13:00,57.7,46.9,30.15,ENE,63,3.6,5.4,67,0.00,,---,0.00,VWS V14.01,2014-10-20 05:13:00,
2014-10-20 08:19:00,57.9,47.0,30.15,NE,42,5.4,8.3,67,0.00,,---,0.00,VWS V14.01,2014-10-20 05:19:00,
2014-10-20 08:24:00,58.3,47.4,30.15,ENE,63,2.2,2.7,67,0.00,,---,0.00,VWS V14.01,2014-10-20 05:24:00,
2014-10-20 08:29:00,58.5,47.2,30.15,ENE,70,3.6,8.1,66,0.00,,---,0.00,VWS V14.01,2014-10-20 05:29:00,
2014-10-20 08:34:00,58.8,47.1,30.15,East,83,2.7,5.4,65,0.00,,---,0.00,VWS V14.01,2014-10-20 05:34:00,
2014-10-20 08:40:00,59.0,46.8,30.15,ENE,62,3.1,6.3,64,0.00,,---,0.00,VWS V14.01,2014-10-20 05:40:00,
2014-10-20 08:45:00,59.4,47.2,30.15,NE,44,3.1,6.3,64,0.00,,---,0.00,VWS V14.01,2014-10-20 05:45:00,
2014-10-20 08:50:00,59.5,47.4,30.15,ESE,104,3.1,4.9,64,0.00,,---,0.00,VWS V14.01,2014-10-20 05:50:00,
2014-10-20 08:56:00,59.7,47.5,30.15,ENE,59,3.6,5.4,64,0.00,,---,0.00,VWS V14.01,2014-10-20 05:56:00,
2014-10-20 09:01:00,59.9,47.7,30.15,ENE,57,4.0,7.2,64,0.00,,---,0.00,VWS V14.01,2014-10-20 06:01:00,
2014-10-20 09:06:00,60.1,47.9,30.15,NNE,23,6.3,6.3,64,0.00,,---,0.00,VWS V14.01,2014-10-20 06:06:00,
2014-10-20 09:11:00,60.3,47.6,30.15,ENE,73,5.8,6.3,63,0.00,,---,0.00,VWS V14.01,2014-10-20 06:11:00,
2014-10-20 09:17:00,60.4,47.8,30.15,North,357,5.4,6.3,63,0.00,,---,0.00,VWS V14.01,2014-10-20 06:17:00,
2014-10-20 09:23:00,60.6,48.0,30.15,NNE,21,3.1,4.9,63,0.00,,---,0.00,VWS V14.01,2014-10-20 06:23:00,
2014-10-20 09:28:00,60.8,47.7,30.15,NE,54,2.7,7.2,62,0.00,,---,0.00,VWS V14.01,2014-10-20 06:28:00,
2014-10-20 09:33:00,61.2,48.0,30.15,ENE,73,2.7,6.3,62,0.00,,---,0.00,VWS V14.01,2014-10-20 06:33:00,
2014-10-20 09:38:00,61.3,47.3,30.18,NNE,17,4.9,8.1,60,0.00,,---,0.00,VWS V14.01,2014-10-20 06:38:00,
2014-10-20 09:44:00,61.5,47.5,30.18,NE,52,4.0,5.4,60,0.00,,---,0.00,VWS V14.01,2014-10-20 06:44:00,
2014-10-20 09:49:00,61.9,47.9,30.18,NE,37,0.0,3.6,60,0.00,,---,0.00,VWS V14.01,2014-10-20 06:49:00,
2014-10-20 09:56:00,62.1,47.6,30.15,NE,40,2.7,7.6,59,0.00,,---,0.00,VWS V14.01,2014-10-20 06:56:00,
2014-10-20 10:01:00,62.2,47.8,30.15,NE,43,8.3,8.3,59,0.00,,---,0.00,VWS V14.01,2014-10-20 07:01:00,
2014-10-20 10:07:00,62.2,47.8,30.15,SE,124,4.9,5.8,59,0.00,,---,0.00,VWS V14.01,2014-10-20 07:07:00,
2014-10-20 10:12:00,62.6,47.6,30.15,ENE,78,6.3,10.1,58,0.00,,---,0.00,VWS V14.01,2014-10-20 07:12:00,
2014-10-20 10:18:00,62.8,47.3,30.15,NNE,15,5.4,5.8,57,0.00,,---,0.00,VWS V14.01,2014-10-20 07:18:00,
2014-10-20 10:23:00,63.1,47.7,30.15,NE,34,3.1,4.0,57,0.00,,---,0.00,VWS V14.01,2014-10-20 07:23:00,
2014-10-20 10:29:00,63.3,47.4,30.15,NNE,16,2.7,8.1,56,0.00,,---,0.00,VWS V14.01,2014-10-20 07:29:00,
2014-10-20 10:34:00,63.5,47.5,30.15,North,357,2.7,5.4,56,0.00,,---,0.00,VWS V14.01,2014-10-20 07:34:00,
2014-10-20 10:39:00,63.7,47.7,30.18,NNE,20,4.0,5.4,56,0.00,,---,0.00,VWS V14.01,2014-10-20 07:39:00,
2014-10-20 10:46:00,63.7,47.2,30.18,NNE,23,10.1,12.8,55,0.00,,---,0.00,VWS V14.01,2014-10-20 07:46:00,
2014-10-20 10:51:00,63.5,46.6,30.15,NNE,24,12.8,12.8,54,0.00,,---,0.00,VWS V14.01,2014-10-20 07:51:00,
2014-10-20 10:57:00,63.7,46.7,30.15,NNE,18,8.1,12.3,54,0.00,,---,0.00,VWS V14.01,2014-10-20 07:57:00,
2014-10-20 11:02:00,64.0,47.1,30.15,NE,52,10.1,10.1,54,0.00,,---,0.00,VWS V14.01,2014-10-20 08:02:00,
2014-10-20 11:07:00,64.2,46.8,30.15,NNE,28,8.1,13.6,53,0.00,,---,0.00,VWS V14.01,2014-10-20 08:07:00,
2014-10-20 11:12:00,64.2,46.8,30.15,North,357,4.9,8.3,53,0.00,,---,0.00,VWS V14.01,2014-10-20 08:12:00,
2014-10-20 11:18:00,64.4,46.9,30.15,ESE,122,10.1,10.5,53,0.00,,---,0.00,VWS V14.01,2014-10-20 08:18:00,
2014-10-20 11:24:00,64.4,46.4,30.15,NE,42,8.1,11.0,52,0.00,,---,0.00,VWS V14.01,2014-10-20 08:24:00,
2014-10-20 11:29:00,64.8,46.7,30.15,North,357,5.8,6.7,52,0.00,,---,0.00,VWS V14.01,2014-10-20 08:29:00,
2014-10-20 11:34:00,65.1,47.1,30.15,NE,46,5.8,11.0,52,0.00,,---,0.00,VWS V14.01,2014-10-20 08:34:00,
2014-10-20 11:39:00,65.1,46.6,30.15,North,1,7.6,10.1,51,0.00,,---,0.00,VWS V14.01,2014-10-20 08:39:00,
2014-10-20 11:45:00,64.9,46.9,30.15,ENE,69,4.0,10.1,52,0.00,,---,0.00,VWS V14.01,2014-10-20 08:45:00,
2014-10-20 11:50:00,64.9,47.4,30.15,ENE,74,6.3,7.6,53,0.00,,---,0.00,VWS V14.01,2014-10-20 08:50:00,
2014-10-20 11:56:00,65.3,47.2,30.15,SE,124,4.0,6.3,52,0.00,,---,0.00,VWS V14.01,2014-10-20 08:56:00,
2014-10-20 12:02:00,65.8,47.7,30.15,ENE,62,6.3,6.3,52,0.00,,---,0.00,VWS V14.01,2014-10-20 09:02:00,
2014-10-20 12:07:00,66.4,47.2,30.15,SE,139,4.0,8.7,50,0.00,,---,0.00,VWS V14.01,2014-10-20 09:07:00,
2014-10-20 12:13:00,66.6,46.8,30.15,NNE,28,5.4,8.1,49,0.00,,---,0.00,VWS V14.01,2014-10-20 09:13:00,
2014-10-20 12:18:00,66.4,46.7,30.15,East,83,4.0,4.0,49,0.00,,---,0.00,VWS V14.01,2014-10-20 09:18:00,
2014-10-20 12:23:00,66.4,47.2,30.15,NE,47,3.1,8.1,50,0.00,,---,0.00,VWS V14.01,2014-10-20 09:23:00,
2014-10-20 12:28:00,66.6,46.8,30.15,NE,46,12.8,13.2,49,0.00,,---,0.00,VWS V14.01,2014-10-20 09:28:00,
2014-10-20 12:34:00,66.4,46.7,30.15,NE,40,6.3,10.1,49,0.00,,---,0.00,VWS V14.01,2014-10-20 09:34:00,
2014-10-20 12:39:00,66.7,47.0,30.12,North,0,3.6,6.7,49,0.00,,---,0.00,VWS V14.01,2014-10-20 09:39:00,
2014-10-20 12:45:00,67.1,47.3,30.12,ENE,69,4.9,5.4,49,0.00,,---,0.00,VWS V14.01,2014-10-20 09:45:00,
2014-10-20 12:51:00,67.1,46.8,30.12,North,9,5.8,8.1,48,0.00,,---,0.00,VWS V14.01,2014-10-20 09:51:00,
2014-10-20 12:56:00,67.3,46.9,30.12,ENE,75,5.8,12.3,48,0.00,,---,0.00,VWS V14.01,2014-10-20 09:56:00,
2014-10-20 13:01:00,67.5,47.1,30.12,NNE,25,7.6,7.6,48,0.00,,---,0.00,VWS V14.01,2014-10-20 10:01:00,
2014-10-20 13:06:00,67.6,47.3,30.12,NNE,30,6.3,6.3,48,0.00,,---,0.00,VWS V14.01,2014-10-20 10:06:00,
2014-10-20 13:12:00,68.0,47.6,30.12,NE,50,6.3,6.3,48,0.00,,---,0.00,VWS V14.01,2014-10-20 10:12:00,
2014-10-20 13:17:00,68.4,47.4,30.12,North,357,2.7,4.0,47,0.00,,---,0.00,VWS V14.01,2014-10-20 10:17:00,
2014-10-20 13:23:00,68.9,47.9,30.09,East,86,3.6,4.5,47,0.00,,---,0.00,VWS V14.01,2014-10-20 10:23:00,
2014-10-20 13:28:00,68.9,47.3,30.09,NE,54,5.4,5.8,46,0.00,,---,0.00,VWS V14.01,2014-10-20 10:28:00,
2014-10-20 13:33:00,68.9,47.3,30.09,NE,52,8.1,8.1,46,0.00,,---,0.00,VWS V14.01,2014-10-20 10:33:00,
2014-10-20 13:38:00,69.1,46.9,30.09,East,81,5.8,5.8,45,0.00,,---,0.00,VWS V14.01,2014-10-20 10:38:00,
2014-10-20 13:44:00,69.1,46.9,30.09,NE,48,2.7,4.9,45,0.00,,---,0.00,VWS V14.01,2014-10-20 10:44:00,
2014-10-20 13:49:00,69.3,47.0,30.09,East,86,6.3,6.3,45,0.00,,---,0.00,VWS V14.01,2014-10-20 10:49:00,
2014-10-20 13:55:00,69.4,47.2,30.09,NNE,28,2.2,5.4,45,0.00,,---,0.00,VWS V14.01,2014-10-20 10:55:00,
2014-10-20 14:00:00,70.0,47.1,30.09,NE,45,0.0,5.8,44,0.00,,---,0.00,VWS V14.01,2014-10-20 11:00:00,
2014-10-20 14:05:00,70.3,47.4,30.09,NE,54,3.6,3.6,44,0.00,,---,0.00,VWS V14.01,2014-10-20 11:05:00,
2014-10-20 14:12:00,70.5,47.6,30.09,NE,54,0.0,4.9,44,0.00,,---,0.00,VWS V14.01,2014-10-20 11:12:00,
2014-10-20 14:17:00,70.3,47.4,30.09,East,96,0.0,3.1,44,0.00,,---,0.00,VWS V14.01,2014-10-20 11:17:00,
2014-10-20 14:22:00,70.3,47.4,30.06,SE,131,3.6,4.0,44,0.00,,---,0.00,VWS V14.01,2014-10-20 11:22:00,
2014-10-20 14:28:00,70.5,47.6,30.06,NE,49,4.0,4.0,44,0.00,,---,0.00,VWS V14.01,2014-10-20 11:28:00,
2014-10-20 14:33:00,70.7,47.7,30.06,East,85,0.0,0.0,44,0.00,,---,0.00,VWS V14.01,2014-10-20 11:33:00,
2014-10-20 14:38:00,70.5,47.6,30.06,East,81,4.0,5.4,44,0.00,,---,0.00,VWS V14.01,2014-10-20 11:38:00,
2014-10-20 14:44:00,70.7,47.7,30.06,SE,132,0.0,4.0,44,0.00,,---,0.00,VWS V14.01,2014-10-20 11:44:00,
2014-10-20 14:49:00,70.9,47.9,30.06,East,95,0.0,4.0,44,0.00,,---,0.00,VWS V14.01,2014-10-20 11:49:00,
2014-10-20 14:55:00,71.1,48.1,30.06,ENE,69,0.0,0.0,44,0.00,,---,0.00,VWS V14.01,2014-10-20 11:55:00,
2014-10-20 15:00:00,71.1,47.5,30.06,NE,47,2.7,5.4,43,0.00,,---,0.00,VWS V14.01,2014-10-20 12:00:00,
2014-10-20 15:06:00,71.1,48.1,30.06,WNW,297,3.1,5.8,44,0.00,,---,0.00,VWS V14.01,2014-10-20 12:06:00,
2014-10-20 15:11:00,71.2,48.2,30.06,NE,43,4.5,4.5,44,0.00,,---,0.00,VWS V14.01,2014-10-20 12:11:00,
2014-10-20 15:17:00,71.4,47.2,30.06,North,11,0.0,0.0,42,0.00,,---,0.00,VWS V14.01,2014-10-20 12:17:00,
2014-10-20 15:23:00,71.6,47.9,30.06,NNE,12,0.0,0.0,43,0.00,,---,0.00,VWS V14.01,2014-10-20 12:23:00,
2014-10-20 15:29:00,72.1,47.2,30.06,ENE,74,0.0,0.0,41,0.00,,---,0.00,VWS V14.01,2014-10-20 12:29:00,
2014-10-20 15:34:00,72.3,47.3,30.06,NNW,335,0.0,0.0,41,0.00,,---,0.00,VWS V14.01,2014-10-20 12:34:00,
2014-10-20 15:40:00,72.5,47.5,30.03,WSW,242,0.0,0.0,41,0.00,,---,0.00,VWS V14.01,2014-10-20 12:40:00,
2014-10-20 15:45:00,71.6,45.4,30.03,West,272,3.6,4.0,39,0.00,,---,0.00,VWS V14.01,2014-10-20 12:45:00,
2014-10-20 15:51:00,71.6,46.0,30.03,NNW,331,4.9,4.9,40,0.00,,---,0.00,VWS V14.01,2014-10-20 12:51:00,
2014-10-20 15:57:00,72.0,47.0,30.03,West,273,0.0,0.0,41,0.00,,---,0.00,VWS V14.01,2014-10-20 12:57:00,
2014-10-20 16:02:00,72.1,47.2,30.03,SSE,153,0.0,0.0,41,0.00,,---,0.00,VWS V14.01,2014-10-20 13:02:00,
2014-10-20 16:08:00,72.0,48.9,30.03,South,179,2.7,3.6,44,0.00,,---,0.00,VWS V14.01,2014-10-20 13:08:00,
2014-10-20 16:13:00,71.8,49.3,30.03,SE,132,4.0,4.5,45,0.00,,---,0.00,VWS V14.01,2014-10-20 13:13:00,
2014-10-20 16:19:00,71.1,48.7,30.03,ESE,122,3.1,5.4,45,0.00,,---,0.00,VWS V14.01,2014-10-20 13:19:00,
2014-10-20 16:24:00,70.9,48.5,30.03,ENE,76,3.1,4.0,45,0.00,,---,0.00,VWS V14.01,2014-10-20 13:24:00,
2014-10-20 16:30:00,70.7,49.5,30.03,ESE,118,6.3,6.3,47,0.00,,---,0.00,VWS V14.01,2014-10-20 13:30:00,
2014-10-20 16:35:00,69.8,49.8,30.03,ESE,107,8.1,8.3,49,0.00,,---,0.00,VWS V14.01,2014-10-20 13:35:00,
2014-10-20 16:40:00,69.6,49.6,30.03,ESE,104,5.4,6.3,49,0.00,,---,0.00,VWS V14.01,2014-10-20 13:40:00,
2014-10-20 16:46:00,69.6,50.2,30.03,ESE,114,6.3,7.2,50,0.00,,---,0.00,VWS V14.01,2014-10-20 13:46:00,